sensor_id;sensor_type;location;lat;lon;timestamp;P1;durP1;ratioP1;P2;durP2;ratioP2
9330;SDS011;4704;50.470;12.072;2023-06-10T00:01:46;8.73;;;8.13;;
9330;SDS011;4704;50.470;12.072;2023-06-10T00:04:15;8.55;;;7.95;;
9330;SDS011;4704;50.470;12.072;2023-06-10T00:06:43;8.23;;;7.63;;
9330;SDS011;4704;50.470;12.072;2023-06-10T00:09:10;8.68;;;8.07;;
9330;SDS011;4704;50.470;12.072;2023-06-10T00:11:39;8.65;;;8.05;;
9330;SDS011;4704;50.470;12.072;2023-06-10T00:14:06;8.63;;;7.93;;
9330;SDS011;4704;50.470;12.072;2023-06-10T00:16:36;8.55;;;7.75;;
9330;SDS011;4704;50.470;12.072;2023-06-10T00:19:04;8.40;;;7.68;;
9330;SDS011;4704;50.470;12.072;2023-06-10T00:21:33;8.38;;;7.78;;
9330;SDS011;4704;50.470;12.072;2023-06-10T00:24:05;8.38;;;7.78;;
9330;SDS011;4704;50.470;12.072;2023-06-10T00:26:34;8.48;;;7.78;;
9330;SDS011;4704;50.470;12.072;2023-06-10T00:29:02;8.50;;;7.80;;
9330;SDS011;4704;50.470;12.072;2023-06-10T00:31:30;8.32;;;7.63;;
9330;SDS011;4704;50.470;12.072;2023-06-10T00:33:59;8.50;;;7.90;;
9330;SDS011;4704;50.470;12.072;2023-06-10T00:36:28;8.35;;;7.55;;
9330;SDS011;4704;50.470;12.072;2023-06-10T00:38:56;8.45;;;7.85;;
9330;SDS011;4704;50.470;12.072;2023-06-10T00:41:23;8.02;;;7.53;;
9330;SDS011;4704;50.470;12.072;2023-06-10T00:43:52;8.65;;;7.95;;
9330;SDS011;4704;50.470;12.072;2023-06-10T00:46:20;8.10;;;7.50;;
9330;SDS011;4704;50.470;12.072;2023-06-10T00:48:48;8.27;;;7.60;;
9330;SDS011;4704;50.470;12.072;2023-06-10T00:51:17;7.53;;;7.03;;
9330;SDS011;4704;50.470;12.072;2023-06-10T00:53:45;8.48;;;7.78;;
9330;SDS011;4704;50.470;12.072;2023-06-10T00:56:13;7.60;;;7.07;;
9330;SDS011;4704;50.470;12.072;2023-06-10T00:58:40;8.38;;;7.72;;
9330;SDS011;4704;50.470;12.072;2023-06-10T01:01:08;7.88;;;7.38;;
9330;SDS011;4704;50.470;12.072;2023-06-10T01:03:36;7.57;;;7.07;;
9330;SDS011;4704;50.470;12.072;2023-06-10T01:06:06;7.70;;;7.10;;
9330;SDS011;4704;50.470;12.072;2023-06-10T01:08:39;8.27;;;7.57;;
9330;SDS011;4704;50.470;12.072;2023-06-10T01:11:08;8.35;;;7.65;;
9330;SDS011;4704;50.470;12.072;2023-06-10T01:13:41;8.18;;;7.57;;
9330;SDS011;4704;50.470;12.072;2023-06-10T01:16:09;8.50;;;7.90;;
9330;SDS011;4704;50.470;12.072;2023-06-10T01:18:36;7.50;;;7.00;;
9330;SDS011;4704;50.470;12.072;2023-06-10T01:21:04;7.93;;;7.32;;
9330;SDS011;4704;50.470;12.072;2023-06-10T01:23:34;7.75;;;7.15;;
9330;SDS011;4704;50.470;12.072;2023-06-10T01:26:02;8.20;;;7.60;;
9330;SDS011;4704;50.470;12.072;2023-06-10T01:28:32;8.38;;;7.78;;
9330;SDS011;4704;50.470;12.072;2023-06-10T01:31:03;8.15;;;7.55;;
9330;SDS011;4704;50.470;12.072;2023-06-10T01:33:37;8.13;;;7.45;;
9330;SDS011;4704;50.470;12.072;2023-06-10T01:36:05;8.60;;;8.00;;
9330;SDS011;4704;50.470;12.072;2023-06-10T01:38:36;8.77;;;8.10;;
9330;SDS011;4704;50.470;12.072;2023-06-10T01:41:07;8.05;;;7.45;;
9330;SDS011;4704;50.470;12.072;2023-06-10T01:43:34;7.78;;;7.18;;
9330;SDS011;4704;50.470;12.072;2023-06-10T01:46:02;8.07;;;7.47;;
9330;SDS011;4704;50.470;12.072;2023-06-10T01:48:29;8.45;;;7.85;;
9330;SDS011;4704;50.470;12.072;2023-06-10T01:50:56;8.43;;;7.82;;
9330;SDS011;4704;50.470;12.072;2023-06-10T01:53:24;8.15;;;7.40;;
9330;SDS011;4704;50.470;12.072;2023-06-10T01:55:53;8.38;;;7.78;;
9330;SDS011;4704;50.470;12.072;2023-06-10T01:58:21;8.40;;;7.80;;
9330;SDS011;4704;50.470;12.072;2023-06-10T02:00:48;8.05;;;7.45;;
9330;SDS011;4704;50.470;12.072;2023-06-10T02:03:16;8.30;;;7.70;;
9330;SDS011;4704;50.470;12.072;2023-06-10T02:05:43;8.07;;;7.47;;
9330;SDS011;4704;50.470;12.072;2023-06-10T02:08:11;7.68;;;7.18;;
9330;SDS011;4704;50.470;12.072;2023-06-10T02:10:38;8.43;;;7.82;;
9330;SDS011;4704;50.470;12.072;2023-06-10T02:13:07;8.27;;;7.68;;
9330;SDS011;4704;50.470;12.072;2023-06-10T02:15:35;8.30;;;7.63;;
9330;SDS011;4704;50.470;12.072;2023-06-10T02:18:02;8.43;;;7.82;;
9330;SDS011;4704;50.470;12.072;2023-06-10T02:20:31;7.90;;;7.40;;
9330;SDS011;4704;50.470;12.072;2023-06-10T02:22:59;7.25;;;6.75;;
9330;SDS011;4704;50.470;12.072;2023-06-10T02:25:26;7.53;;;7.03;;
9330;SDS011;4704;50.470;12.072;2023-06-10T02:27:54;7.93;;;7.32;;
9330;SDS011;4704;50.470;12.072;2023-06-10T02:30:23;8.45;;;7.85;;
9330;SDS011;4704;50.470;12.072;2023-06-10T02:32:50;7.95;;;7.35;;
9330;SDS011;4704;50.470;12.072;2023-06-10T02:35:18;7.85;;;7.35;;
9330;SDS011;4704;50.470;12.072;2023-06-10T02:37:45;8.52;;;7.93;;
9330;SDS011;4704;50.470;12.072;2023-06-10T02:40:13;8.07;;;7.47;;
9330;SDS011;4704;50.470;12.072;2023-06-10T02:42:40;8.13;;;7.53;;
9330;SDS011;4704;50.470;12.072;2023-06-10T02:45:08;7.97;;;7.38;;
9330;SDS011;4704;50.470;12.072;2023-06-10T02:47:38;8.85;;;8.05;;
9330;SDS011;4704;50.470;12.072;2023-06-10T02:50:06;7.88;;;7.28;;
9330;SDS011;4704;50.470;12.072;2023-06-10T02:52:34;7.60;;;7.10;;
9330;SDS011;4704;50.470;12.072;2023-06-10T02:55:01;8.52;;;7.93;;
9330;SDS011;4704;50.470;12.072;2023-06-10T02:57:29;8.63;;;8.02;;
9330;SDS011;4704;50.470;12.072;2023-06-10T02:59:56;7.88;;;7.28;;
9330;SDS011;4704;50.470;12.072;2023-06-10T03:02:25;8.20;;;7.60;;
9330;SDS011;4704;50.470;12.072;2023-06-10T03:04:54;7.90;;;7.30;;
9330;SDS011;4704;50.470;12.072;2023-06-10T03:07:22;8.00;;;7.40;;
9330;SDS011;4704;50.470;12.072;2023-06-10T03:09:50;8.40;;;7.70;;
9330;SDS011;4704;50.470;12.072;2023-06-10T03:12:17;7.97;;;7.40;;
9330;SDS011;4704;50.470;12.072;2023-06-10T03:14:45;7.55;;;7.05;;
9330;SDS011;4704;50.470;12.072;2023-06-10T03:17:13;7.95;;;7.38;;
9330;SDS011;4704;50.470;12.072;2023-06-10T03:19:40;8.45;;;7.75;;
9330;SDS011;4704;50.470;12.072;2023-06-10T03:22:10;7.50;;;6.97;;
9330;SDS011;4704;50.470;12.072;2023-06-10T03:24:38;7.88;;;7.28;;
9330;SDS011;4704;50.470;12.072;2023-06-10T03:27:06;8.00;;;7.50;;
9330;SDS011;4704;50.470;12.072;2023-06-10T03:29:34;8.50;;;7.90;;
9330;SDS011;4704;50.470;12.072;2023-06-10T03:32:02;7.68;;;7.18;;
9330;SDS011;4704;50.470;12.072;2023-06-10T03:34:30;7.78;;;7.28;;
9330;SDS011;4704;50.470;12.072;2023-06-10T03:36:57;7.97;;;7.38;;
9330;SDS011;4704;50.470;12.072;2023-06-10T03:39:26;7.47;;;6.97;;
9330;SDS011;4704;50.470;12.072;2023-06-10T03:41:54;8.43;;;7.78;;
9330;SDS011;4704;50.470;12.072;2023-06-10T03:44:24;7.90;;;7.40;;
9330;SDS011;4704;50.470;12.072;2023-06-10T03:46:53;7.82;;;7.32;;
9330;SDS011;4704;50.470;12.072;2023-06-10T03:49:20;8.02;;;7.45;;
9330;SDS011;4704;50.470;12.072;2023-06-10T03:51:52;7.60;;;7.10;;
9330;SDS011;4704;50.470;12.072;2023-06-10T03:54:20;7.78;;;7.28;;
9330;SDS011;4704;50.470;12.072;2023-06-10T03:56:49;7.70;;;7.18;;
9330;SDS011;4704;50.470;12.072;2023-06-10T03:59:17;7.78;;;7.18;;
9330;SDS011;4704;50.470;12.072;2023-06-10T04:01:44;8.00;;;7.50;;
9330;SDS011;4704;50.470;12.072;2023-06-10T04:04:13;7.90;;;7.28;;
9330;SDS011;4704;50.470;12.072;2023-06-10T04:06:41;8.02;;;7.43;;
9330;SDS011;4704;50.470;12.072;2023-06-10T04:09:09;8.15;;;7.45;;
9330;SDS011;4704;50.470;12.072;2023-06-10T04:11:37;8.05;;;7.45;;
9330;SDS011;4704;50.470;12.072;2023-06-10T04:14:06;7.47;;;6.95;;
9330;SDS011;4704;50.470;12.072;2023-06-10T04:16:33;7.50;;;6.97;;
9330;SDS011;4704;50.470;12.072;2023-06-10T04:19:01;8.68;;;8.00;;
9330;SDS011;4704;50.470;12.072;2023-06-10T04:21:28;7.80;;;7.30;;
9330;SDS011;4704;50.470;12.072;2023-06-10T04:23:55;8.07;;;7.53;;
9330;SDS011;4704;50.470;12.072;2023-06-10T04:26:23;7.75;;;7.15;;
9330;SDS011;4704;50.470;12.072;2023-06-10T04:28:52;8.38;;;7.78;;
9330;SDS011;4704;50.470;12.072;2023-06-10T04:31:20;8.80;;;8.10;;
9330;SDS011;4704;50.470;12.072;2023-06-10T04:33:48;7.78;;;7.18;;
9330;SDS011;4704;50.470;12.072;2023-06-10T04:36:15;8.23;;;7.63;;
9330;SDS011;4704;50.470;12.072;2023-06-10T04:38:43;8.07;;;7.47;;
9330;SDS011;4704;50.470;12.072;2023-06-10T04:41:11;8.63;;;8.02;;
9330;SDS011;4704;50.470;12.072;2023-06-10T04:43:38;8.27;;;7.68;;
9330;SDS011;4704;50.470;12.072;2023-06-10T04:46:05;8.35;;;7.85;;
9330;SDS011;4704;50.470;12.072;2023-06-10T04:48:34;8.48;;;7.88;;
9330;SDS011;4704;50.470;12.072;2023-06-10T04:51:02;8.05;;;7.45;;
9330;SDS011;4704;50.470;12.072;2023-06-10T04:53:30;7.80;;;7.15;;
9330;SDS011;4704;50.470;12.072;2023-06-10T04:55:58;7.82;;;7.32;;
9330;SDS011;4704;50.470;12.072;2023-06-10T04:58:25;8.02;;;7.43;;
9330;SDS011;4704;50.470;12.072;2023-06-10T05:00:52;7.72;;;7.15;;
9330;SDS011;4704;50.470;12.072;2023-06-10T05:03:19;8.27;;;7.68;;
9330;SDS011;4704;50.470;12.072;2023-06-10T05:05:48;9.00;;;8.30;;
9330;SDS011;4704;50.470;12.072;2023-06-10T05:08:16;8.63;;;8.02;;
9330;SDS011;4704;50.470;12.072;2023-06-10T05:10:43;8.50;;;7.90;;
9330;SDS011;4704;50.470;12.072;2023-06-10T05:13:10;8.43;;;7.82;;
9330;SDS011;4704;50.470;12.072;2023-06-10T05:15:38;8.10;;;7.50;;
9330;SDS011;4704;50.470;12.072;2023-06-10T05:18:09;9.75;;;9.05;;
9330;SDS011;4704;50.470;12.072;2023-06-10T05:20:37;9.10;;;8.40;;
9330;SDS011;4704;50.470;12.072;2023-06-10T05:23:06;8.80;;;8.20;;
9330;SDS011;4704;50.470;12.072;2023-06-10T05:25:33;8.98;;;8.35;;
9330;SDS011;4704;50.470;12.072;2023-06-10T05:28:01;9.43;;;8.73;;
9330;SDS011;4704;50.470;12.072;2023-06-10T05:30:28;9.23;;;8.48;;
9330;SDS011;4704;50.470;12.072;2023-06-10T05:32:56;9.38;;;8.68;;
9330;SDS011;4704;50.470;12.072;2023-06-10T05:35:23;9.32;;;8.52;;
9330;SDS011;4704;50.470;12.072;2023-06-10T05:37:50;8.75;;;8.15;;
9330;SDS011;4704;50.470;12.072;2023-06-10T05:40:19;9.15;;;8.55;;
9330;SDS011;4704;50.470;12.072;2023-06-10T05:42:47;10.32;;;8.63;;
9330;SDS011;4704;50.470;12.072;2023-06-10T05:45:14;9.10;;;8.50;;
9330;SDS011;4704;50.470;12.072;2023-06-10T05:47:42;9.10;;;8.50;;
9330;SDS011;4704;50.470;12.072;2023-06-10T05:50:09;8.98;;;8.38;;
9330;SDS011;4704;50.470;12.072;2023-06-10T05:52:36;8.70;;;8.10;;
9330;SDS011;4704;50.470;12.072;2023-06-10T05:55:05;8.50;;;7.90;;
9330;SDS011;4704;50.470;12.072;2023-06-10T05:57:34;9.35;;;8.70;;
9330;SDS011;4704;50.470;12.072;2023-06-10T06:00:01;8.98;;;8.27;;
9330;SDS011;4704;50.470;12.072;2023-06-10T06:02:29;8.60;;;8.00;;
9330;SDS011;4704;50.470;12.072;2023-06-10T06:04:56;9.40;;;8.60;;
9330;SDS011;4704;50.470;12.072;2023-06-10T06:07:24;9.30;;;8.60;;
9330;SDS011;4704;50.470;12.072;2023-06-10T06:09:51;9.10;;;8.40;;
9330;SDS011;4704;50.470;12.072;2023-06-10T06:12:18;8.75;;;8.15;;
9330;SDS011;4704;50.470;12.072;2023-06-10T06:14:47;9.85;;;9.15;;
9330;SDS011;4704;50.470;12.072;2023-06-10T06:17:15;9.25;;;8.50;;
9330;SDS011;4704;50.470;12.072;2023-06-10T06:19:42;10.02;;;9.32;;
9330;SDS011;4704;50.470;12.072;2023-06-10T06:22:12;9.85;;;8.95;;
9330;SDS011;4704;50.470;12.072;2023-06-10T06:24:39;9.73;;;8.82;;
9330;SDS011;4704;50.470;12.072;2023-06-10T06:27:06;9.25;;;8.52;;
9330;SDS011;4704;50.470;12.072;2023-06-10T06:29:34;9.43;;;8.68;;
9330;SDS011;4704;50.470;12.072;2023-06-10T06:32:03;9.63;;;8.82;;
9330;SDS011;4704;50.470;12.072;2023-06-10T06:34:31;9.55;;;8.85;;
9330;SDS011;4704;50.470;12.072;2023-06-10T06:36:58;9.18;;;8.40;;
9330;SDS011;4704;50.470;12.072;2023-06-10T06:39:25;9.48;;;8.77;;
9330;SDS011;4704;50.470;12.072;2023-06-10T06:41:53;9.55;;;8.75;;
9330;SDS011;4704;50.470;12.072;2023-06-10T06:44:20;9.48;;;8.77;;
9330;SDS011;4704;50.470;12.072;2023-06-10T06:46:48;10.45;;;9.65;;
9330;SDS011;4704;50.470;12.072;2023-06-10T06:49:16;9.27;;;8.57;;
9330;SDS011;4704;50.470;12.072;2023-06-10T06:51:44;9.85;;;9.05;;
9330;SDS011;4704;50.470;12.072;2023-06-10T06:54:11;9.18;;;8.48;;
9330;SDS011;4704;50.470;12.072;2023-06-10T06:56:39;9.02;;;8.32;;
9330;SDS011;4704;50.470;12.072;2023-06-10T06:59:06;9.13;;;8.43;;
9330;SDS011;4704;50.470;12.072;2023-06-10T07:01:33;8.93;;;8.23;;
9330;SDS011;4704;50.470;12.072;2023-06-10T07:04:00;9.15;;;8.45;;
9330;SDS011;4704;50.470;12.072;2023-06-10T07:06:29;9.80;;;9.10;;
9330;SDS011;4704;50.470;12.072;2023-06-10T07:08:56;9.02;;;8.30;;
9330;SDS011;4704;50.470;12.072;2023-06-10T07:11:24;9.15;;;8.55;;
9330;SDS011;4704;50.470;12.072;2023-06-10T07:13:51;9.38;;;8.68;;
9330;SDS011;4704;50.470;12.072;2023-06-10T07:16:19;9.73;;;9.02;;
9330;SDS011;4704;50.470;12.072;2023-06-10T07:18:46;10.00;;;9.20;;
9330;SDS011;4704;50.470;12.072;2023-06-10T07:21:13;9.10;;;8.40;;
9330;SDS011;4704;50.470;12.072;2023-06-10T07:23:43;8.93;;;8.23;;
9330;SDS011;4704;50.470;12.072;2023-06-10T07:26:10;9.50;;;8.63;;
9330;SDS011;4704;50.470;12.072;2023-06-10T07:28:38;8.95;;;8.30;;
9330;SDS011;4704;50.470;12.072;2023-06-10T07:31:06;8.93;;;8.18;;
9330;SDS011;4704;50.470;12.072;2023-06-10T07:33:34;9.57;;;8.77;;
9330;SDS011;4704;50.470;12.072;2023-06-10T07:36:02;10.23;;;9.13;;
9330;SDS011;4704;50.470;12.072;2023-06-10T07:38:29;9.13;;;8.32;;
9330;SDS011;4704;50.470;12.072;2023-06-10T07:40:58;9.60;;;8.80;;
9330;SDS011;4704;50.470;12.072;2023-06-10T07:43:25;9.50;;;8.70;;
9330;SDS011;4704;50.470;12.072;2023-06-10T07:45:53;9.50;;;8.68;;
9330;SDS011;4704;50.470;12.072;2023-06-10T07:48:20;9.38;;;8.65;;
9330;SDS011;4704;50.470;12.072;2023-06-10T07:50:47;8.82;;;8.15;;
9330;SDS011;4704;50.470;12.072;2023-06-10T07:53:15;8.43;;;7.82;;
9330;SDS011;4704;50.470;12.072;2023-06-10T07:55:42;8.50;;;7.88;;
9330;SDS011;4704;50.470;12.072;2023-06-10T07:58:11;9.32;;;8.52;;
9330;SDS011;4704;50.470;12.072;2023-06-10T08:00:38;9.98;;;9.18;;
9330;SDS011;4704;50.470;12.072;2023-06-10T08:03:05;10.15;;;9.35;;
9330;SDS011;4704;50.470;12.072;2023-06-10T08:05:34;9.63;;;8.88;;
9330;SDS011;4704;50.470;12.072;2023-06-10T08:08:02;9.52;;;8.82;;
9330;SDS011;4704;50.470;12.072;2023-06-10T08:10:29;9.55;;;8.85;;
9330;SDS011;4704;50.470;12.072;2023-06-10T08:12:56;9.27;;;8.48;;
9330;SDS011;4704;50.470;12.072;2023-06-10T08:15:25;9.73;;;8.82;;
9330;SDS011;4704;50.470;12.072;2023-06-10T08:17:52;9.30;;;8.60;;
9330;SDS011;4704;50.470;12.072;2023-06-10T08:20:22;9.05;;;8.35;;
9330;SDS011;4704;50.470;12.072;2023-06-10T08:22:49;8.75;;;8.07;;
9330;SDS011;4704;50.470;12.072;2023-06-10T08:25:16;8.95;;;8.23;;
9330;SDS011;4704;50.470;12.072;2023-06-10T08:27:43;9.57;;;8.88;;
9330;SDS011;4704;50.470;12.072;2023-06-10T08:30:11;8.88;;;8.18;;
9330;SDS011;4704;50.470;12.072;2023-06-10T08:32:40;9.30;;;8.50;;
9330;SDS011;4704;50.470;12.072;2023-06-10T08:35:08;9.13;;;8.43;;
9330;SDS011;4704;50.470;12.072;2023-06-10T08:37:35;8.52;;;7.93;;
9330;SDS011;4704;50.470;12.072;2023-06-10T08:40:02;8.70;;;8.10;;
9330;SDS011;4704;50.470;12.072;2023-06-10T08:42:32;8.70;;;8.10;;
9330;SDS011;4704;50.470;12.072;2023-06-10T08:45:02;8.15;;;7.55;;
9330;SDS011;4704;50.470;12.072;2023-06-10T08:47:31;8.75;;;8.13;;
9330;SDS011;4704;50.470;12.072;2023-06-10T08:50:02;9.02;;;8.23;;
9330;SDS011;4704;50.470;12.072;2023-06-10T08:52:33;8.75;;;8.05;;
9330;SDS011;4704;50.470;12.072;2023-06-10T08:55:03;8.50;;;7.90;;
9330;SDS011;4704;50.470;12.072;2023-06-10T08:57:30;8.65;;;7.95;;
9330;SDS011;4704;50.470;12.072;2023-06-10T08:59:58;8.98;;;8.38;;
9330;SDS011;4704;50.470;12.072;2023-06-10T09:02:25;9.23;;;8.50;;
9330;SDS011;4704;50.470;12.072;2023-06-10T09:04:54;9.07;;;8.32;;
9330;SDS011;4704;50.470;12.072;2023-06-10T09:07:24;9.20;;;8.50;;
9330;SDS011;4704;50.470;12.072;2023-06-10T09:09:52;9.45;;;8.75;;
9330;SDS011;4704;50.470;12.072;2023-06-10T09:12:20;10.05;;;9.27;;
9330;SDS011;4704;50.470;12.072;2023-06-10T09:14:48;9.48;;;8.77;;
9330;SDS011;4704;50.470;12.072;2023-06-10T09:17:16;9.57;;;8.77;;
9330;SDS011;4704;50.470;12.072;2023-06-10T09:19:43;9.80;;;9.00;;
9330;SDS011;4704;50.470;12.072;2023-06-10T09:22:11;10.85;;;9.95;;
9330;SDS011;4704;50.470;12.072;2023-06-10T09:24:39;9.38;;;8.68;;
9330;SDS011;4704;50.470;12.072;2023-06-10T09:27:07;8.57;;;7.90;;
9330;SDS011;4704;50.470;12.072;2023-06-10T09:29:44;9.00;;;8.20;;
9330;SDS011;4704;50.470;12.072;2023-06-10T09:32:12;10.00;;;9.25;;
9330;SDS011;4704;50.470;12.072;2023-06-10T09:34:39;9.30;;;8.60;;
9330;SDS011;4704;50.470;12.072;2023-06-10T09:37:07;9.60;;;8.90;;
9330;SDS011;4704;50.470;12.072;2023-06-10T09:39:37;9.30;;;8.45;;
9330;SDS011;4704;50.470;12.072;2023-06-10T09:42:10;10.02;;;9.23;;
9330;SDS011;4704;50.470;12.072;2023-06-10T09:44:39;9.80;;;9.10;;
9330;SDS011;4704;50.470;12.072;2023-06-10T09:47:07;9.10;;;8.35;;
9330;SDS011;4704;50.470;12.072;2023-06-10T09:49:34;9.30;;;8.60;;
9330;SDS011;4704;50.470;12.072;2023-06-10T09:52:04;9.73;;;8.93;;
9330;SDS011;4704;50.470;12.072;2023-06-10T09:54:32;9.40;;;8.70;;
9330;SDS011;4704;50.470;12.072;2023-06-10T09:57:00;9.05;;;8.35;;
9330;SDS011;4704;50.470;12.072;2023-06-10T09:59:33;9.90;;;9.10;;
9330;SDS011;4704;50.470;12.072;2023-06-10T10:02:02;9.82;;;9.13;;
9330;SDS011;4704;50.470;12.072;2023-06-10T10:04:30;10.60;;;9.70;;
9330;SDS011;4704;50.470;12.072;2023-06-10T10:06:57;9.57;;;8.88;;
9330;SDS011;4704;50.470;12.072;2023-06-10T10:09:25;10.07;;;9.27;;
9330;SDS011;4704;50.470;12.072;2023-06-10T10:11:53;10.70;;;9.90;;
9330;SDS011;4704;50.470;12.072;2023-06-10T10:14:21;10.40;;;9.55;;
9330;SDS011;4704;50.470;12.072;2023-06-10T10:16:49;9.82;;;8.90;;
9330;SDS011;4704;50.470;12.072;2023-06-10T10:19:23;10.25;;;9.45;;
9330;SDS011;4704;50.470;12.072;2023-06-10T10:21:52;9.98;;;9.27;;
9330;SDS011;4704;50.470;12.072;2023-06-10T10:24:20;10.82;;;10.02;;
9330;SDS011;4704;50.470;12.072;2023-06-10T10:26:48;10.82;;;10.02;;
9330;SDS011;4704;50.470;12.072;2023-06-10T10:29:20;10.90;;;10.07;;
9330;SDS011;4704;50.470;12.072;2023-06-10T10:31:50;10.65;;;9.95;;
9330;SDS011;4704;50.470;12.072;2023-06-10T10:34:19;10.40;;;9.48;;
9330;SDS011;4704;50.470;12.072;2023-06-10T10:36:50;10.20;;;9.40;;
9330;SDS011;4704;50.470;12.072;2023-06-10T10:39:18;10.43;;;9.73;;
9330;SDS011;4704;50.470;12.072;2023-06-10T10:41:46;10.45;;;9.65;;
9330;SDS011;4704;50.470;12.072;2023-06-10T10:44:13;10.27;;;9.48;;
9330;SDS011;4704;50.470;12.072;2023-06-10T10:46:44;10.77;;;10.07;;
9330;SDS011;4704;50.470;12.072;2023-06-10T10:49:13;10.70;;;9.90;;
9330;SDS011;4704;50.470;12.072;2023-06-10T10:51:55;10.00;;;9.35;;
9330;SDS011;4704;50.470;12.072;2023-06-10T10:54:28;11.32;;;10.43;;
9330;SDS011;4704;50.470;12.072;2023-06-10T10:57:15;11.60;;;10.73;;
9330;SDS011;4704;50.470;12.072;2023-06-10T10:59:43;10.68;;;9.88;;
9330;SDS011;4704;50.470;12.072;2023-06-10T11:02:14;11.13;;;10.32;;
9330;SDS011;4704;50.470;12.072;2023-06-10T11:04:44;11.73;;;10.82;;
9330;SDS011;4704;50.470;12.072;2023-06-10T11:07:13;10.20;;;9.50;;
9330;SDS011;4704;50.470;12.072;2023-06-10T11:12:23;11.73;;;10.82;;
9330;SDS011;4704;50.470;12.072;2023-06-10T11:14:53;11.82;;;11.02;;
9330;SDS011;4704;50.470;12.072;2023-06-10T11:17:21;12.48;;;11.43;;
9330;SDS011;4704;50.470;12.072;2023-06-10T11:19:49;11.70;;;10.80;;
9330;SDS011;4704;50.470;12.072;2023-06-10T11:22:18;10.75;;;9.85;;
9330;SDS011;4704;50.470;12.072;2023-06-10T11:24:48;11.52;;;10.52;;
9330;SDS011;4704;50.470;12.072;2023-06-10T11:27:17;11.05;;;10.18;;
9330;SDS011;4704;50.470;12.072;2023-06-10T11:32:39;10.45;;;9.65;;
9330;SDS011;4704;50.470;12.072;2023-06-10T11:35:08;9.85;;;9.05;;
9330;SDS011;4704;50.470;12.072;2023-06-10T11:37:37;10.55;;;9.70;;
9330;SDS011;4704;50.470;12.072;2023-06-10T11:40:05;10.35;;;9.45;;
9330;SDS011;4704;50.470;12.072;2023-06-10T11:42:37;9.13;;;8.52;;
9330;SDS011;4704;50.470;12.072;2023-06-10T11:45:06;8.93;;;8.32;;
9330;SDS011;4704;50.470;12.072;2023-06-10T11:47:34;9.30;;;8.60;;
9330;SDS011;4704;50.470;12.072;2023-06-10T11:50:01;9.43;;;8.73;;
9330;SDS011;4704;50.470;12.072;2023-06-10T11:52:28;9.50;;;8.68;;
9330;SDS011;4704;50.470;12.072;2023-06-10T11:54:58;9.40;;;8.80;;
9330;SDS011;4704;50.470;12.072;2023-06-10T11:57:26;8.60;;;8.00;;
9330;SDS011;4704;50.470;12.072;2023-06-10T11:59:53;8.90;;;8.23;;
9330;SDS011;4704;50.470;12.072;2023-06-10T12:02:20;9.18;;;8.55;;
9330;SDS011;4704;50.470;12.072;2023-06-10T12:04:48;9.10;;;8.45;;
9330;SDS011;4704;50.470;12.072;2023-06-10T12:07:18;9.15;;;8.45;;
9330;SDS011;4704;50.470;12.072;2023-06-10T12:09:52;9.15;;;8.40;;
9330;SDS011;4704;50.470;12.072;2023-06-10T12:12:27;9.30;;;8.60;;
9330;SDS011;4704;50.470;12.072;2023-06-10T12:14:55;9.00;;;8.40;;
9330;SDS011;4704;50.470;12.072;2023-06-10T12:17:23;8.90;;;8.20;;
9330;SDS011;4704;50.470;12.072;2023-06-10T12:19:50;8.95;;;8.35;;
9330;SDS011;4704;50.470;12.072;2023-06-10T12:22:18;9.20;;;8.50;;
9330;SDS011;4704;50.470;12.072;2023-06-10T12:24:45;9.27;;;8.55;;
9330;SDS011;4704;50.470;12.072;2023-06-10T12:27:13;8.80;;;8.10;;
9330;SDS011;4704;50.470;12.072;2023-06-10T12:29:51;9.07;;;8.30;;
9330;SDS011;4704;50.470;12.072;2023-06-10T12:32:20;9.88;;;9.07;;
9330;SDS011;4704;50.470;12.072;2023-06-10T12:34:50;9.23;;;8.43;;
9330;SDS011;4704;50.470;12.072;2023-06-10T12:37:29;9.50;;;8.60;;
9330;SDS011;4704;50.470;12.072;2023-06-10T12:40:00;8.63;;;8.02;;
9330;SDS011;4704;50.470;12.072;2023-06-10T12:42:27;8.90;;;8.30;;
9330;SDS011;4704;50.470;12.072;2023-06-10T12:44:56;8.48;;;7.88;;
9330;SDS011;4704;50.470;12.072;2023-06-10T12:47:29;8.57;;;7.88;;
9330;SDS011;4704;50.470;12.072;2023-06-10T12:49:58;8.90;;;8.20;;
9330;SDS011;4704;50.470;12.072;2023-06-10T12:52:25;9.13;;;8.43;;
9330;SDS011;4704;50.470;12.072;2023-06-10T12:54:53;8.25;;;7.65;;
9330;SDS011;4704;50.470;12.072;2023-06-10T12:57:20;14.35;;;8.10;;
9330;SDS011;4704;50.470;12.072;2023-06-10T12:59:48;8.65;;;7.85;;
9330;SDS011;4704;50.470;12.072;2023-06-10T13:02:19;8.43;;;7.45;;
9330;SDS011;4704;50.470;12.072;2023-06-10T13:04:49;7.97;;;7.25;;
9330;SDS011;4704;50.470;12.072;2023-06-10T13:07:16;8.45;;;7.75;;
9330;SDS011;4704;50.470;12.072;2023-06-10T13:09:44;9.30;;;8.60;;
9330;SDS011;4704;50.470;12.072;2023-06-10T13:12:13;8.85;;;8.25;;
9330;SDS011;4704;50.470;12.072;2023-06-10T13:14:42;8.55;;;7.72;;
9330;SDS011;4704;50.470;12.072;2023-06-10T13:17:10;8.73;;;8.02;;
9330;SDS011;4704;50.470;12.072;2023-06-10T13:19:38;8.63;;;7.82;;
9330;SDS011;4704;50.470;12.072;2023-06-10T13:22:06;8.48;;;7.72;;
9330;SDS011;4704;50.470;12.072;2023-06-10T13:24:34;7.80;;;7.30;;
9330;SDS011;4704;50.470;12.072;2023-06-10T13:27:01;8.02;;;7.53;;
9330;SDS011;4704;50.470;12.072;2023-06-10T13:29:28;8.70;;;8.00;;
9330;SDS011;4704;50.470;12.072;2023-06-10T13:31:56;8.52;;;7.93;;
9330;SDS011;4704;50.470;12.072;2023-06-10T13:34:23;8.68;;;8.07;;
9330;SDS011;4704;50.470;12.072;2023-06-10T13:36:52;8.70;;;8.10;;
9330;SDS011;4704;50.470;12.072;2023-06-10T13:39:19;8.35;;;7.75;;
9330;SDS011;4704;50.470;12.072;2023-06-10T13:41:47;9.05;;;8.35;;
9330;SDS011;4704;50.470;12.072;2023-06-10T13:44:14;9.18;;;8.48;;
9330;SDS011;4704;50.470;12.072;2023-06-10T13:46:41;9.43;;;8.75;;
9330;SDS011;4704;50.470;12.072;2023-06-10T13:49:09;9.38;;;8.60;;
9330;SDS011;4704;50.470;12.072;2023-06-10T13:51:36;9.23;;;8.45;;
9330;SDS011;4704;50.470;12.072;2023-06-10T13:54:05;9.18;;;8.50;;
9330;SDS011;4704;50.470;12.072;2023-06-10T13:56:32;8.98;;;8.27;;
9330;SDS011;4704;50.470;12.072;2023-06-10T13:59:03;9.57;;;8.77;;
9330;SDS011;4704;50.470;12.072;2023-06-10T14:01:30;8.88;;;8.23;;
9330;SDS011;4704;50.470;12.072;2023-06-10T14:03:58;8.90;;;8.30;;
9330;SDS011;4704;50.470;12.072;2023-06-10T14:06:25;9.55;;;8.75;;
9330;SDS011;4704;50.470;12.072;2023-06-10T14:08:53;8.48;;;7.78;;
9330;SDS011;4704;50.470;12.072;2023-06-10T14:11:22;9.07;;;8.20;;
9330;SDS011;4704;50.470;12.072;2023-06-10T14:13:49;8.70;;;8.00;;
9330;SDS011;4704;50.470;12.072;2023-06-10T14:16:17;9.05;;;8.35;;
9330;SDS011;4704;50.470;12.072;2023-06-10T14:18:45;9.43;;;8.63;;
9330;SDS011;4704;50.470;12.072;2023-06-10T14:21:12;8.35;;;7.75;;
9330;SDS011;4704;50.470;12.072;2023-06-10T14:23:39;8.35;;;7.60;;
9330;SDS011;4704;50.470;12.072;2023-06-10T14:26:08;8.55;;;7.88;;
9330;SDS011;4704;50.470;12.072;2023-06-10T14:28:37;8.82;;;8.02;;
9330;SDS011;4704;50.470;12.072;2023-06-10T14:31:05;8.10;;;7.50;;
9330;SDS011;4704;50.470;12.072;2023-06-10T14:33:32;8.55;;;7.75;;
9330;SDS011;4704;50.470;12.072;2023-06-10T14:36:00;8.65;;;7.85;;
9330;SDS011;4704;50.470;12.072;2023-06-10T14:38:27;8.07;;;7.47;;
9330;SDS011;4704;50.470;12.072;2023-06-10T14:40:55;8.43;;;7.72;;
9330;SDS011;4704;50.470;12.072;2023-06-10T14:43:22;8.30;;;7.60;;
9330;SDS011;4704;50.470;12.072;2023-06-10T14:45:51;8.27;;;7.68;;
9330;SDS011;4704;50.470;12.072;2023-06-10T14:48:20;8.50;;;7.80;;
9330;SDS011;4704;50.470;12.072;2023-06-10T14:50:47;7.85;;;7.25;;
9330;SDS011;4704;50.470;12.072;2023-06-10T14:53:16;7.40;;;6.72;;
9330;SDS011;4704;50.470;12.072;2023-06-10T14:55:43;7.88;;;7.28;;
9330;SDS011;4704;50.470;12.072;2023-06-10T14:58:11;7.68;;;7.07;;
9330;SDS011;4704;50.470;12.072;2023-06-10T15:00:38;7.88;;;7.28;;
9330;SDS011;4704;50.470;12.072;2023-06-10T15:03:07;7.70;;;7.10;;
9330;SDS011;4704;50.470;12.072;2023-06-10T15:05:34;7.72;;;7.22;;
9330;SDS011;4704;50.470;12.072;2023-06-10T15:08:02;7.72;;;7.18;;
9330;SDS011;4704;50.470;12.072;2023-06-10T15:10:29;8.07;;;7.47;;
9330;SDS011;4704;50.470;12.072;2023-06-10T15:12:57;7.57;;;7.05;;